JNA511 RKSS-RKPC
Flight info
| Callsign | JNA511 |
|---|---|
| Flight time | 0h 48m |
| Altitude | 24000 |
| Route | BULTI2U BULTI Y711 DOTOL DOTOL2P |
| Aircraft | B738/M-SDE2E3FGHIRWXY/LB1 |
Departure
| Time | 2026-05-05 01:26 |
|---|---|
| Airport | Gimpo International Airport (RKSS) |
Arrival
| Time | 2026-05-05 02:14 |
|---|---|
| Airport | Jeju International Airport (RKPC) |
| Time | Latitude | Longitude | Altitude | Speed | Heading |
|---|---|---|---|---|---|
| 2026-05-05 01:02 | 37.55962 | 126.80067 | 57 ft | 0 kts | 45° |
| 2026-05-05 01:15 | 37.55957 | 126.80061 | 66 ft | 4 kts | 45° |
| 2026-05-05 01:15 | 37.55938 | 126.80037 | 60 ft | 4 kts | 45° |
| 2026-05-05 01:15 | 37.55919 | 126.80013 | 60 ft | 4 kts | 39° |
| 2026-05-05 01:16 | 37.55896 | 126.79996 | 57 ft | 4 kts | 16° |
| 2026-05-05 01:16 | 37.55872 | 126.79994 | 65 ft | 4 kts | 330° |
| 2026-05-05 01:16 | 37.55862 | 126.80004 | 60 ft | 1 kts | 315° |
| 2026-05-05 01:16 | 37.55861 | 126.80005 | 59 ft | 0 kts | 315° |
| 2026-05-05 01:19 | 37.55873 | 126.79990 | 64 ft | 9 kts | 315° |
| 2026-05-05 01:19 | 37.55902 | 126.79891 | 66 ft | 12 kts | 280° |
| 2026-05-05 01:20 | 37.55918 | 126.79773 | 62 ft | 15 kts | 279° |
| 2026-05-05 01:20 | 37.55935 | 126.79632 | 66 ft | 17 kts | 278° |
| 2026-05-05 01:20 | 37.55998 | 126.79469 | 63 ft | 23 kts | 313° |
| 2026-05-05 01:20 | 37.56114 | 126.79319 | 64 ft | 24 kts | 315° |
| 2026-05-05 01:21 | 37.56232 | 126.79171 | 62 ft | 24 kts | 315° |
| 2026-05-05 01:21 | 37.56348 | 126.79032 | 62 ft | 23 kts | 315° |
| 2026-05-05 01:21 | 37.56458 | 126.78891 | 64 ft | 24 kts | 315° |
| 2026-05-05 01:21 | 37.56584 | 126.78731 | 66 ft | 29 kts | 314° |
| 2026-05-05 01:22 | 37.56708 | 126.78573 | 63 ft | 24 kts | 315° |
| 2026-05-05 01:22 | 37.56822 | 126.78431 | 60 ft | 23 kts | 315° |
| 2026-05-05 01:22 | 37.56937 | 126.78285 | 62 ft | 25 kts | 315° |
| 2026-05-05 01:22 | 37.57061 | 126.78131 | 61 ft | 26 kts | 315° |
| 2026-05-05 01:23 | 37.57156 | 126.77975 | 59 ft | 15 kts | 261° |
| 2026-05-05 01:23 | 37.57137 | 126.77942 | 53 ft | 0 kts | 224° |
| 2026-05-05 01:24 | 37.57137 | 126.77941 | 53 ft | 1 kts | 224° |
| 2026-05-05 01:24 | 37.57077 | 126.77869 | 54 ft | 11 kts | 220° |
| 2026-05-05 01:24 | 37.57024 | 126.77886 | 56 ft | 3 kts | 134° |
| 2026-05-05 01:24 | 37.57018 | 126.77893 | 56 ft | 6 kts | 135° |
| 2026-05-05 01:25 | 37.56904 | 126.78036 | 59 ft | 51 kts | 135° |
| 2026-05-05 01:25 | 37.56496 | 126.78550 | 65 ft | 112 kts | 135° |
| 2026-05-05 01:25 | 37.55821 | 126.79397 | 71 ft | 159 kts | 136° |
| 2026-05-05 01:25 | 37.55007 | 126.80447 | 390 ft | 177 kts | 137° |
| 2026-05-05 01:26 | 37.54102 | 126.81591 | 849 ft | 188 kts | 138° |
| 2026-05-05 01:26 | 37.53195 | 126.82739 | 1695 ft | 179 kts | 138° |
| 2026-05-05 01:26 | 37.52347 | 126.83830 | 2405 ft | 180 kts | 139° |
| 2026-05-05 01:26 | 37.51725 | 126.84595 | 2556 ft | 197 kts | 139° |
| 2026-05-05 01:27 | 37.50311 | 126.86287 | 2828 ft | 223 kts | 145° |
| 2026-05-05 01:27 | 37.48883 | 126.87121 | 3060 ft | 236 kts | 165° |
| 2026-05-05 01:27 | 37.47246 | 126.87761 | 3472 ft | 249 kts | 165° |
| 2026-05-05 01:27 | 37.45572 | 126.88425 | 4100 ft | 255 kts | 165° |
| 2026-05-05 01:28 | 37.43880 | 126.89098 | 4793 ft | 258 kts | 165° |
| 2026-05-05 01:28 | 37.42721 | 126.89560 | 5243 ft | 261 kts | 165° |
| 2026-05-05 01:28 | 37.40972 | 126.90258 | 5839 ft | 267 kts | 165° |
| 2026-05-05 01:28 | 37.38606 | 126.91201 | 5996 ft | 270 kts | 165° |
| 2026-05-05 01:29 | 37.37416 | 126.91683 | 6009 ft | 272 kts | 163° |
| 2026-05-05 01:29 | 37.35731 | 126.92816 | 6249 ft | 278 kts | 147° |
| 2026-05-05 01:29 | 37.34154 | 126.94249 | 6955 ft | 279 kts | 148° |
| 2026-05-05 01:29 | 37.32397 | 126.95194 | 7659 ft | 275 kts | 177° |
| 2026-05-05 01:30 | 37.30512 | 126.94943 | 8389 ft | 272 kts | 192° |
| 2026-05-05 01:30 | 37.28632 | 126.94495 | 9087 ft | 277 kts | 192° |
| 2026-05-05 01:30 | 37.26749 | 126.94052 | 9787 ft | 281 kts | 192° |
| 2026-05-05 01:30 | 37.24800 | 126.93604 | 10367 ft | 290 kts | 191° |
| 2026-05-05 01:31 | 37.22729 | 126.93137 | 10541 ft | 313 kts | 191° |
| 2026-05-05 01:31 | 37.20498 | 126.92645 | 10704 ft | 335 kts | 191° |
| 2026-05-05 01:31 | 37.18132 | 126.92132 | 10877 ft | 354 kts | 190° |
| 2026-05-05 01:31 | 37.15662 | 126.91603 | 11379 ft | 361 kts | 190° |
| 2026-05-05 01:32 | 37.13174 | 126.91075 | 12032 ft | 364 kts | 189° |
| 2026-05-05 01:32 | 37.10688 | 126.90551 | 12692 ft | 367 kts | 189° |
| 2026-05-05 01:32 | 37.08156 | 126.90017 | 13354 ft | 371 kts | 189° |
| 2026-05-05 01:32 | 37.05599 | 126.89479 | 14039 ft | 374 kts | 189° |
| 2026-05-05 01:33 | 37.03013 | 126.88935 | 14645 ft | 377 kts | 189° |
| 2026-05-05 01:33 | 37.00434 | 126.88393 | 15213 ft | 382 kts | 189° |
| 2026-05-05 01:33 | 36.97798 | 126.87839 | 15830 ft | 386 kts | 188° |
| 2026-05-05 01:33 | 36.95132 | 126.87280 | 16129 ft | 390 kts | 188° |
| 2026-05-05 01:34 | 36.92453 | 126.86717 | 16132 ft | 389 kts | 188° |
| 2026-05-05 01:34 | 36.89776 | 126.86156 | 16142 ft | 389 kts | 188° |
| 2026-05-05 01:34 | 36.87089 | 126.85593 | 16150 ft | 389 kts | 188° |
| 2026-05-05 01:34 | 36.84451 | 126.85040 | 16149 ft | 389 kts | 188° |
| 2026-05-05 01:35 | 36.81776 | 126.84480 | 16147 ft | 390 kts | 188° |
| 2026-05-05 01:35 | 36.79096 | 126.83920 | 16144 ft | 390 kts | 188° |
| 2026-05-05 01:35 | 36.76416 | 126.83360 | 16146 ft | 390 kts | 188° |
| 2026-05-05 01:35 | 36.73734 | 126.82800 | 16144 ft | 390 kts | 188° |
| 2026-05-05 01:36 | 36.71038 | 126.82444 | 16175 ft | 391 kts | 179° |
| 2026-05-05 01:36 | 36.68291 | 126.82553 | 16681 ft | 396 kts | 176° |
| 2026-05-05 01:36 | 36.65530 | 126.82702 | 17412 ft | 396 kts | 176° |
| 2026-05-05 01:36 | 36.62767 | 126.82835 | 18071 ft | 399 kts | 177° |
| 2026-05-05 01:37 | 36.60012 | 126.82946 | 18611 ft | 403 kts | 177° |
| 2026-05-05 01:37 | 36.57189 | 126.83048 | 19123 ft | 407 kts | 177° |
| 2026-05-05 01:37 | 36.54349 | 126.83149 | 19709 ft | 408 kts | 178° |
| 2026-05-05 01:37 | 36.51494 | 126.83263 | 20219 ft | 413 kts | 178° |
| 2026-05-05 01:38 | 36.48607 | 126.83385 | 20717 ft | 416 kts | 178° |
| 2026-05-05 01:38 | 36.45703 | 126.83507 | 21233 ft | 419 kts | 178° |
| 2026-05-05 01:38 | 36.42800 | 126.83627 | 21688 ft | 423 kts | 178° |
| 2026-05-05 01:38 | 36.39846 | 126.83749 | 22118 ft | 427 kts | 178° |
| 2026-05-05 01:39 | 36.36864 | 126.83737 | 22559 ft | 430 kts | 184° |
| 2026-05-05 01:39 | 36.33861 | 126.83426 | 23053 ft | 432 kts | 187° |
| 2026-05-05 01:39 | 36.30856 | 126.83039 | 23530 ft | 435 kts | 187° |
| 2026-05-05 01:39 | 36.27833 | 126.82648 | 23896 ft | 439 kts | 187° |
| 2026-05-05 01:40 | 36.24774 | 126.82275 | 24155 ft | 443 kts | 186° |
| 2026-05-05 01:40 | 36.21716 | 126.81925 | 24153 ft | 450 kts | 186° |
| 2026-05-05 01:40 | 36.18583 | 126.81579 | 24166 ft | 453 kts | 186° |
| 2026-05-05 01:40 | 36.15453 | 126.81238 | 24156 ft | 449 kts | 187° |
| 2026-05-05 01:41 | 36.12350 | 126.80900 | 24162 ft | 446 kts | 187° |
| 2026-05-05 01:41 | 36.09261 | 126.80564 | 24165 ft | 444 kts | 187° |
| 2026-05-05 01:41 | 36.06182 | 126.80228 | 24168 ft | 443 kts | 187° |
| 2026-05-05 01:41 | 36.03109 | 126.79893 | 24175 ft | 444 kts | 187° |
| 2026-05-05 01:42 | 36.00046 | 126.79559 | 24176 ft | 445 kts | 187° |
| 2026-05-05 01:42 | 35.96954 | 126.79223 | 24176 ft | 446 kts | 187° |
| 2026-05-05 01:42 | 35.93857 | 126.78886 | 24175 ft | 447 kts | 187° |
| 2026-05-05 01:42 | 35.90755 | 126.78549 | 24174 ft | 448 kts | 187° |
| 2026-05-05 01:43 | 35.87634 | 126.78211 | 24176 ft | 449 kts | 187° |
| 2026-05-05 01:43 | 35.84516 | 126.77875 | 24172 ft | 449 kts | 187° |
| 2026-05-05 01:43 | 35.81392 | 126.77538 | 24171 ft | 450 kts | 187° |
| 2026-05-05 01:43 | 35.78269 | 126.77202 | 24167 ft | 450 kts | 187° |
| 2026-05-05 01:44 | 35.75177 | 126.76869 | 24170 ft | 449 kts | 187° |
| 2026-05-05 01:44 | 35.72063 | 126.76535 | 24172 ft | 449 kts | 187° |
| 2026-05-05 01:44 | 35.68946 | 126.76200 | 24171 ft | 449 kts | 187° |
| 2026-05-05 01:44 | 35.65834 | 126.75866 | 24171 ft | 448 kts | 187° |
| 2026-05-05 01:45 | 35.62721 | 126.75531 | 24168 ft | 448 kts | 187° |
| 2026-05-05 01:45 | 35.59617 | 126.75199 | 24169 ft | 448 kts | 187° |
| 2026-05-05 01:45 | 35.56519 | 126.74866 | 24169 ft | 447 kts | 187° |
| 2026-05-05 01:45 | 35.53411 | 126.74529 | 24169 ft | 448 kts | 187° |
| 2026-05-05 01:46 | 35.50300 | 126.74196 | 24177 ft | 449 kts | 187° |
| 2026-05-05 01:46 | 35.47178 | 126.73866 | 24172 ft | 448 kts | 187° |
| 2026-05-05 01:46 | 35.44112 | 126.73542 | 24173 ft | 448 kts | 187° |
| 2026-05-05 01:46 | 35.40994 | 126.73212 | 24169 ft | 448 kts | 187° |
| 2026-05-05 01:47 | 35.37878 | 126.72883 | 24157 ft | 447 kts | 187° |
| 2026-05-05 01:47 | 35.34780 | 126.72555 | 24172 ft | 447 kts | 187° |
| 2026-05-05 01:47 | 35.31676 | 126.72226 | 24171 ft | 447 kts | 187° |
| 2026-05-05 01:47 | 35.28576 | 126.71897 | 24173 ft | 447 kts | 187° |
| 2026-05-05 01:48 | 35.25510 | 126.71573 | 24172 ft | 447 kts | 187° |
| 2026-05-05 01:48 | 35.22403 | 126.71245 | 24175 ft | 447 kts | 187° |
| 2026-05-05 01:48 | 35.19303 | 126.70918 | 24174 ft | 447 kts | 187° |
| 2026-05-05 01:48 | 35.16202 | 126.70591 | 24174 ft | 447 kts | 187° |
| 2026-05-05 01:49 | 35.13092 | 126.70263 | 24169 ft | 447 kts | 187° |
| 2026-05-05 01:49 | 35.09990 | 126.69935 | 24171 ft | 447 kts | 187° |
| 2026-05-05 01:49 | 35.06889 | 126.69607 | 24172 ft | 447 kts | 187° |
| 2026-05-05 01:49 | 35.03781 | 126.69278 | 24172 ft | 447 kts | 187° |
| 2026-05-05 01:50 | 35.00688 | 126.68951 | 24171 ft | 447 kts | 187° |
| 2026-05-05 01:50 | 34.97621 | 126.68626 | 24169 ft | 447 kts | 187° |
| 2026-05-05 01:50 | 34.94515 | 126.68298 | 24169 ft | 447 kts | 187° |
| 2026-05-05 01:50 | 34.91411 | 126.67970 | 24167 ft | 447 kts | 187° |
| 2026-05-05 01:51 | 34.88342 | 126.67648 | 23959 ft | 438 kts | 187° |
| 2026-05-05 01:51 | 34.85343 | 126.67334 | 23722 ft | 428 kts | 187° |
| 2026-05-05 01:51 | 34.82377 | 126.67023 | 23450 ft | 424 kts | 187° |
| 2026-05-05 01:51 | 34.79441 | 126.66713 | 23178 ft | 423 kts | 187° |
| 2026-05-05 01:52 | 34.76547 | 126.66408 | 22924 ft | 422 kts | 187° |
| 2026-05-05 01:52 | 34.73623 | 126.66100 | 22656 ft | 421 kts | 187° |
| 2026-05-05 01:52 | 34.70704 | 126.65793 | 22397 ft | 420 kts | 187° |
| 2026-05-05 01:52 | 34.67794 | 126.65487 | 22130 ft | 419 kts | 187° |
| 2026-05-05 01:53 | 34.64888 | 126.65182 | 21824 ft | 416 kts | 187° |
| 2026-05-05 01:53 | 34.62032 | 126.64881 | 21268 ft | 405 kts | 187° |
| 2026-05-05 01:53 | 34.59275 | 126.64588 | 20733 ft | 391 kts | 187° |
| 2026-05-05 01:53 | 34.56601 | 126.64307 | 20212 ft | 379 kts | 187° |
| 2026-05-05 01:54 | 34.54036 | 126.64046 | 19721 ft | 370 kts | 187° |
| 2026-05-05 01:54 | 34.51493 | 126.63784 | 19237 ft | 363 kts | 187° |
| 2026-05-05 01:54 | 34.48955 | 126.63518 | 18761 ft | 369 kts | 186° |
| 2026-05-05 01:54 | 34.46332 | 126.63241 | 18214 ft | 389 kts | 186° |
| 2026-05-05 01:55 | 34.43640 | 126.62959 | 17610 ft | 384 kts | 186° |
| 2026-05-05 01:55 | 34.41015 | 126.62686 | 17065 ft | 372 kts | 186° |
| 2026-05-05 01:55 | 34.38497 | 126.62418 | 16538 ft | 362 kts | 186° |
| 2026-05-05 01:55 | 34.36016 | 126.62149 | 16066 ft | 353 kts | 186° |
| 2026-05-05 01:56 | 34.33565 | 126.61882 | 15583 ft | 352 kts | 186° |
| 2026-05-05 01:56 | 34.31127 | 126.61617 | 15118 ft | 360 kts | 186° |
| 2026-05-05 01:56 | 34.28584 | 126.61342 | 14622 ft | 370 kts | 186° |
| 2026-05-05 01:56 | 34.26015 | 126.61065 | 14106 ft | 370 kts | 186° |
| 2026-05-05 01:57 | 34.23450 | 126.60794 | 13522 ft | 366 kts | 186° |
| 2026-05-05 01:57 | 34.20926 | 126.60534 | 12860 ft | 357 kts | 186° |
| 2026-05-05 01:57 | 34.18482 | 126.60283 | 12341 ft | 347 kts | 186° |
| 2026-05-05 01:57 | 34.16118 | 126.60040 | 11844 ft | 345 kts | 186° |
| 2026-05-05 01:58 | 34.13729 | 126.59790 | 11366 ft | 343 kts | 186° |
| 2026-05-05 01:58 | 34.11359 | 126.59547 | 11001 ft | 337 kts | 186° |
| 2026-05-05 01:58 | 34.09064 | 126.59311 | 10864 ft | 326 kts | 186° |
| 2026-05-05 01:58 | 34.06837 | 126.59081 | 10713 ft | 315 kts | 186° |
| 2026-05-05 01:59 | 34.04678 | 126.58859 | 10577 ft | 305 kts | 186° |
| 2026-05-05 01:59 | 34.02596 | 126.58644 | 10448 ft | 296 kts | 186° |
| 2026-05-05 01:59 | 34.00575 | 126.58406 | 10319 ft | 287 kts | 191° |
| 2026-05-05 01:59 | 33.98774 | 126.57513 | 10204 ft | 277 kts | 213° |
| 2026-05-05 02:00 | 33.97260 | 126.56137 | 10096 ft | 268 kts | 219° |
| 2026-05-05 02:00 | 33.95847 | 126.54721 | 9936 ft | 262 kts | 219° |
| 2026-05-05 02:00 | 33.94463 | 126.53341 | 9652 ft | 260 kts | 219° |
| 2026-05-05 02:00 | 33.93066 | 126.51968 | 9389 ft | 258 kts | 219° |
| 2026-05-05 02:01 | 33.91672 | 126.50609 | 9121 ft | 257 kts | 219° |
| 2026-05-05 02:01 | 33.90284 | 126.49260 | 8867 ft | 256 kts | 219° |
| 2026-05-05 02:01 | 33.88884 | 126.47902 | 8641 ft | 261 kts | 219° |
| 2026-05-05 02:01 | 33.87456 | 126.46520 | 8408 ft | 265 kts | 219° |
| 2026-05-05 02:02 | 33.86003 | 126.45112 | 8153 ft | 270 kts | 219° |
| 2026-05-05 02:02 | 33.84538 | 126.43695 | 7895 ft | 269 kts | 219° |
| 2026-05-05 02:02 | 33.83081 | 126.42287 | 7643 ft | 266 kts | 218° |
| 2026-05-05 02:02 | 33.81506 | 126.41150 | 7410 ft | 263 kts | 205° |
| 2026-05-05 02:03 | 33.79842 | 126.40264 | 7168 ft | 261 kts | 203° |
| 2026-05-05 02:03 | 33.78173 | 126.39419 | 6927 ft | 260 kts | 203° |
| 2026-05-05 02:03 | 33.76523 | 126.38578 | 6693 ft | 260 kts | 204° |
| 2026-05-05 02:03 | 33.74860 | 126.37717 | 6446 ft | 260 kts | 204° |
| 2026-05-05 02:04 | 33.73201 | 126.36847 | 6191 ft | 260 kts | 204° |
| 2026-05-05 02:04 | 33.71542 | 126.35969 | 5937 ft | 259 kts | 204° |
| 2026-05-05 02:04 | 33.69889 | 126.35088 | 5685 ft | 259 kts | 204° |
| 2026-05-05 02:04 | 33.68260 | 126.34217 | 5437 ft | 258 kts | 205° |
| 2026-05-05 02:05 | 33.66627 | 126.33340 | 5188 ft | 256 kts | 205° |
| 2026-05-05 02:05 | 33.65004 | 126.32469 | 4939 ft | 255 kts | 205° |
| 2026-05-05 02:05 | 33.63389 | 126.31600 | 4676 ft | 253 kts | 205° |
| 2026-05-05 02:05 | 33.61780 | 126.30733 | 4410 ft | 251 kts | 204° |
| 2026-05-05 02:06 | 33.60206 | 126.29886 | 4163 ft | 249 kts | 204° |
| 2026-05-05 02:06 | 33.58637 | 126.29042 | 4034 ft | 245 kts | 204° |
| 2026-05-05 02:06 | 33.57083 | 126.28206 | 4003 ft | 244 kts | 204° |
| 2026-05-05 02:06 | 33.55541 | 126.27376 | 4000 ft | 243 kts | 204° |
| 2026-05-05 02:07 | 33.53999 | 126.26547 | 4005 ft | 239 kts | 204° |
| 2026-05-05 02:07 | 33.52528 | 126.25756 | 4001 ft | 222 kts | 204° |
| 2026-05-05 02:07 | 33.51166 | 126.25025 | 3982 ft | 205 kts | 204° |
| 2026-05-05 02:07 | 33.49920 | 126.24357 | 3979 ft | 195 kts | 205° |
| 2026-05-05 02:08 | 33.48694 | 126.23699 | 3996 ft | 191 kts | 205° |
| 2026-05-05 02:08 | 33.47492 | 126.23058 | 4007 ft | 187 kts | 205° |
| 2026-05-05 02:08 | 33.46229 | 126.22809 | 3984 ft | 184 kts | 169° |
| 2026-05-05 02:08 | 33.45127 | 126.23586 | 3849 ft | 190 kts | 134° |
| 2026-05-05 02:09 | 33.44625 | 126.24438 | 3743 ft | 188 kts | 122° |
| 2026-05-05 02:09 | 33.43805 | 126.26241 | 3481 ft | 179 kts | 122° |
| 2026-05-05 02:09 | 33.43228 | 126.27530 | 3297 ft | 175 kts | 121° |
| 2026-05-05 02:09 | 33.42660 | 126.28797 | 3121 ft | 171 kts | 121° |
| 2026-05-05 02:10 | 33.42295 | 126.29656 | 3007 ft | 172 kts | 114° |
| 2026-05-05 02:10 | 33.42480 | 126.31547 | 2930 ft | 183 kts | 65° |
| 2026-05-05 02:10 | 33.43036 | 126.32958 | 2753 ft | 190 kts | 68° |
| 2026-05-05 02:10 | 33.43430 | 126.33892 | 2568 ft | 188 kts | 64° |
| 2026-05-05 02:11 | 33.44067 | 126.35213 | 2343 ft | 177 kts | 63° |
| 2026-05-05 02:11 | 33.44686 | 126.36431 | 2116 ft | 165 kts | 61° |
| 2026-05-05 02:11 | 33.45262 | 126.37561 | 1886 ft | 154 kts | 61° |
| 2026-05-05 02:11 | 33.45814 | 126.38645 | 1701 ft | 152 kts | 60° |
| 2026-05-05 02:12 | 33.46361 | 126.39717 | 1489 ft | 150 kts | 60° |
| 2026-05-05 02:12 | 33.47417 | 126.41849 | 1129 ft | 151 kts | 60° |
| 2026-05-05 02:12 | 33.47969 | 126.42903 | 915 ft | 147 kts | 58° |
| 2026-05-05 02:13 | 33.48492 | 126.43923 | 719 ft | 142 kts | 59° |
| 2026-05-05 02:13 | 33.48996 | 126.44931 | 525 ft | 139 kts | 58° |
| 2026-05-05 02:13 | 33.49509 | 126.45917 | 310 ft | 140 kts | 57° |
| 2026-05-05 02:13 | 33.50012 | 126.46889 | 139 ft | 136 kts | 58° |
| 2026-05-05 02:14 | 33.50485 | 126.47809 | 93 ft | 115 kts | 58° |
| 2026-05-05 02:14 | 33.50819 | 126.48456 | 93 ft | 61 kts | 58° |
| 2026-05-05 02:14 | 33.50998 | 126.48831 | 92 ft | 37 kts | 70° |
| 2026-05-05 02:14 | 33.51027 | 126.49047 | 92 ft | 16 kts | 88° |
| 2026-05-05 02:15 | 33.51027 | 126.49179 | 92 ft | 16 kts | 88° |
| 2026-05-05 02:15 | 33.51051 | 126.49297 | 92 ft | 13 kts | 86° |
| 2026-05-05 02:15 | 33.50999 | 126.49365 | 94 ft | 9 kts | 146° |
| 2026-05-05 02:15 | 33.50927 | 126.49385 | 94 ft | 12 kts | 211° |
| 2026-05-05 02:16 | 33.50883 | 126.49311 | 94 ft | 10 kts | 237° |
| 2026-05-05 02:16 | 33.50843 | 126.49233 | 94 ft | 11 kts | 238° |
| 2026-05-05 02:16 | 33.50802 | 126.49152 | 95 ft | 11 kts | 239° |
| 2026-05-05 02:16 | 33.50773 | 126.49080 | 92 ft | 8 kts | 272° |
| 2026-05-05 02:17 | 33.50807 | 126.49037 | 92 ft | 3 kts | 329° |
| 2026-05-05 02:17 | 33.50811 | 126.49034 | 93 ft | 0 kts | 329° |